Time;durP1;ratioP1;P1;durP2;ratioP2;P2;SDS_P1;SDS_P2;PMS_P1;PMS_P2;Temp;Humidity;BMP_temperature;BMP_pressure;BME280_temperature;BME280_humidity;BME280_pressure;Samples;Min_cycle;Max_cycle;Signal;HPM_P1;HPM_P2
2022/04/14 00:06:02;;;;;;;20.90;10.50;;;;;;;7.76;42.03;99010.37;432751;1271;107662;-45
2022/04/14 00:16:09;;;;;;;26.60;10.50;;;;;;;7.57;42.15;98996.88;432592;1271;98007;-44
2022/04/14 00:26:16;;;;;;;21.10;10.70;;;;;;;7.42;42.29;98991.20;432631;1270;112407;-44
2022/04/14 00:36:23;;;;;;;20.60;10.30;;;;;;;7.31;42.53;98986.40;432639;1270;109213;-41
2022/04/14 00:46:31;;;;;;;27.30;11.90;;;;;;;7.18;42.81;98984.08;432663;1270;98879;-44
2022/04/14 00:56:38;;;;;;;25.00;11.80;;;;;;;7.00;43.00;98989.11;432573;1270;112951;-45
2022/04/14 01:06:46;;;;;;;23.00;12.90;;;;;;;6.75;43.53;98991.45;432562;1270;109389;-46
2022/04/14 01:16:53;;;;;;;28.60;11.70;;;;;;;6.32;44.24;98992.34;432530;1270;98966;-41
2022/04/14 01:37:08;;;;;;;28.20;15.10;;;;;;;5.72;45.12;98983.99;433018;1270;108799;-43
2022/04/14 01:57:21;;;;;;;29.60;14.10;;;;;;;5.50;45.69;98985.31;433047;1270;112733;-41
2022/04/14 02:07:27;;;;;;;25.40;13.50;;;;;;;5.45;46.09;98987.30;433002;1269;108252;-44
2022/04/14 02:17:35;;;;;;;28.30;13.10;;;;;;;5.44;46.45;98989.70;433130;1269;98417;-45
2022/04/14 02:27:42;;;;;;;24.10;12.00;;;;;;;5.48;46.94;98983.01;433057;1270;112571;-41
2022/04/14 02:37:49;;;;;;;23.50;11.40;;;;;;;5.47;47.17;98975.16;433089;1270;108822;-41
2022/04/14 02:47:57;;;;;;;21.50;11.00;;;;;;;5.43;47.35;98977.17;432984;1270;98042;-41
2022/04/14 02:58:03;;;;;;;23.60;11.10;;;;;;;5.41;47.47;98971.30;433060;1270;111792;-41
2022/04/14 03:08:10;;;;;;;21.80;10.40;;;;;;;5.38;47.72;98966.59;433081;1271;108788;-43
2022/04/14 03:18:18;;;;;;;22.60;13.00;;;;;;;5.33;47.89;98961.11;433239;1269;98317;-41
2022/04/14 03:28:25;;;;;;;24.90;12.40;;;;;;;5.23;48.41;98956.18;433164;1271;108799;-41
2022/04/14 03:38:37;;;;;;;29.90;13.20;;;;;;;5.11;48.71;98952.30;433167;1270;97970;-44
2022/04/14 03:48:45;;;;;;;24.80;14.80;;;;;;;5.01;48.96;98945.84;433206;1270;112401;-42
2022/04/14 03:58:52;;;;;;;32.90;15.40;;;;;;;5.05;49.62;98947.29;433305;1271;107967;-43
2022/04/14 04:08:59;;;;;;;34.20;15.10;;;;;;;5.20;49.89;98949.22;433420;1270;99291;-42
2022/04/14 04:19:06;;;;;;;28.40;14.80;;;;;;;5.34;49.87;98950.90;432798;1270;112614;-42
2022/04/14 04:29:13;;;;;;;25.90;13.10;;;;;;;5.55;49.93;98954.94;433146;1270;108872;-40
2022/04/14 04:49:27;;;;;;;56.40;27.20;;;;;;;6.01;49.59;98961.42;433294;1270;111292;-41
2022/04/14 04:59:34;;;;;;;49.40;25.60;;;;;;;6.42;49.38;98952.17;433234;1271;108697;-41
2022/04/14 05:09:42;;;;;;;31.70;18.00;;;;;;;7.01;48.84;98944.14;433175;1271;98850;-45
2022/04/14 05:19:49;;;;;;;54.90;27.00;;;;;;;7.48;48.31;98943.15;433318;1271;112358;-45
2022/04/14 05:40:02;;;;;;;46.90;22.90;;;;;;;8.18;47.65;98941.71;433244;1271;99244;-44
2022/04/14 05:50:09;;;;;;;58.20;27.60;;;;;;;8.82;47.28;98931.12;433010;1271;112502;-43
2022/04/14 06:00:19;;;;;;;55.70;27.40;;;;;;;9.59;46.72;98926.52;433325;1269;108831;-41
2022/04/14 06:10:27;;;;;;;59.70;26.10;;;;;;;10.43;46.42;98917.48;433262;1269;99244;-41
2022/04/14 06:20:34;;;;;;;56.70;25.00;;;;;;;11.51;45.88;98909.66;433344;1271;112495;-45
2022/04/14 06:30:42;;;;;;;51.00;25.00;;;;;;;12.82;45.40;98908.90;432975;1269;109294;-41
2022/04/14 06:40:49;;;;;;;38.10;20.50;;;;;;;14.05;44.80;98907.45;433020;1270;99267;-42
2022/04/14 06:50:56;;;;;;;39.00;20.00;;;;;;;14.62;43.44;98910.08;432906;1271;108721;-41
2022/04/14 07:01:04;;;;;;;36.30;19.30;;;;;;;15.28;42.88;98907.83;432876;1271;98089;-45
2022/04/14 07:11:12;;;;;;;56.50;19.30;;;;;;;15.67;42.34;98913.96;432852;1271;111578;-41
2022/04/14 07:21:20;;;;;;;31.10;16.00;;;;;;;16.44;41.97;98911.86;432792;1271;108881;-42
2022/04/14 07:31:27;;;;;;;40.30;17.50;;;;;;;17.16;41.06;98915.61;432744;1271;99263;-43
2022/04/14 07:41:34;;;;;;;23.30;12.70;;;;;;;17.57;40.43;98909.29;432670;1270;108802;-47
2022/04/14 08:01:46;;;;;;;27.50;13.60;;;;;;;18.71;39.24;98911.34;432871;1269;109924;-47
2022/04/14 08:11:54;;;;;;;20.00;12.20;;;;;;;18.76;38.48;98912.34;432651;1271;108966;-43
2022/04/14 08:22:01;;;;;;;21.60;12.10;;;;;;;18.96;37.86;98907.98;432785;1270;98077;-46
2022/04/14 08:32:12;;;;;;;27.80;12.00;;;;;;;19.28;37.00;98899.52;432631;1270;108657;-44
2022/04/14 08:42:26;;;;;;;19.50;11.40;;;;;;;19.64;37.04;98899.52;432656;1271;98007;-42
2022/04/14 09:12:50;;;;;;;17.30;9.60;;;;;;;20.38;35.95;98888.08;432283;1271;447185;-41
2022/04/14 09:23:10;;;;;;;18.80;11.10;;;;;;;20.47;35.90;98887.17;432839;1271;108801;-45
2022/04/14 09:33:19;;;;;;;22.20;9.50;;;;;;;20.69;35.73;98887.80;432731;1271;99246;-40
2022/04/14 09:43:54;;;;;;;14.80;9.50;;;;;;;20.90;35.09;98877.57;432759;1270;111175;-44
2022/04/14 09:54:06;;;;;;;;;;;;;;;21.13;35.40;98868.40;432818;1271;108869;-42
2022/04/14 10:14:35;;;;;;;27.10;12.00;;;;;;;21.07;34.10;98847.14;432680;1269;108870;-45
2022/04/14 10:24:43;;;;;;;16.70;11.20;;;;;;;21.02;34.14;98833.61;432756;1271;99243;-41
2022/04/14 10:34:50;;;;;;;21.70;11.50;;;;;;;21.22;34.41;98820.56;432865;1270;112256;-41
2022/04/14 10:44:57;;;;;;;16.90;10.60;;;;;;;21.33;34.03;98813.30;432728;1271;108800;-46
2022/04/14 10:55:06;;;;;;;19.10;10.40;;;;;;;21.49;33.90;98803.77;432700;1269;99267;-41
2022/04/14 11:05:41;;;;;;;15.10;11.20;;;;;;;21.72;33.74;98794.28;432818;1269;108807;-41
2022/04/14 11:15:50;;;;;;;14.70;11.40;;;;;;;21.57;31.57;98793.55;432835;1270;99140;-45
2022/04/14 11:26:02;;;;;;;19.30;11.40;;;;;;;21.55;32.34;98782.99;432785;1270;112328;-44
2022/04/14 11:46:25;;;;;;;13.00;8.50;;;;;;;21.68;30.56;98762.23;432890;1270;99375;-45
2022/04/14 11:56:32;;;;;;;15.00;7.70;;;;;;;21.78;30.22;98760.10;433154;1269;106671;-44
2022/04/14 12:06:39;;;;;;;8.70;6.00;;;;;;;22.03;30.73;98755.04;433112;1270;99279;-44
2022/04/14 12:16:52;;;;;;;10.90;7.10;;;;;;;22.11;30.37;98748.56;433080;1270;112395;-48
2022/04/14 12:26:56;;;;;;;12.50;7.80;;;;;;;22.22;30.26;98733.83;433080;1270;107736;-41
2022/04/14 12:47:15;;;;;;;10.30;7.40;;;;;;;22.34;30.41;98708.21;433254;1270;108835;-42
2022/04/14 12:57:24;;;;;;;9.80;6.50;;;;;;;22.41;30.04;98700.49;433126;1270;99346;-47
2022/04/14 13:07:44;;;;;;;16.30;6.70;;;;;;;22.28;29.31;98700.59;433130;1270;112405;-42
2022/04/14 13:17:53;;;;;;;9.40;6.70;;;;;;;22.04;28.78;98687.81;433130;1269;108465;-42
2022/04/14 13:28:01;;;;;;;9.80;6.20;;;;;;;22.00;28.84;98678.77;433169;1269;98035;-42
2022/04/14 13:38:10;;;;;;;8.60;6.00;;;;;;;21.99;28.74;98673.03;433269;1270;108863;-46
2022/04/14 13:48:17;;;;;;;11.00;6.00;;;;;;;22.04;28.94;98665.26;433270;1269;99295;-48
2022/04/14 13:58:25;;;;;;;7.30;5.10;;;;;;;21.95;28.88;98662.48;433058;1270;112958;-45
2022/04/14 14:08:32;;;;;;;8.00;4.60;;;;;;;21.83;28.38;98656.17;433276;1269;109103;-44
2022/04/14 14:18:39;;;;;;;5.60;4.30;;;;;;;21.81;28.51;98647.02;433080;1270;99247;-43
2022/04/14 14:28:46;;;;;;;6.90;4.30;;;;;;;21.73;28.16;98650.36;433183;1270;107855;-47
2022/04/14 14:49:01;;;;;;;5.50;3.90;;;;;;;21.64;28.63;98639.73;433182;1269;112459;-46
2022/04/14 14:59:15;;;;;;;6.20;4.40;;;;;;;21.60;28.78;98639.82;433243;1269;110898;-45
2022/04/14 15:09:23;;;;;;;11.20;4.60;;;;;;;21.54;28.83;98639.29;433221;1271;99242;-45
2022/04/14 15:19:31;;;;;;;6.00;4.10;;;;;;;21.38;28.80;98632.89;433197;1270;107723;-46
2022/04/14 15:29:38;;;;;;;8.00;4.70;;;;;;;21.33;29.00;98629.92;433284;1268;98070;-42
2022/04/14 15:39:46;;;;;;;8.30;4.20;;;;;;;21.18;29.06;98630.04;433001;1270;112447;-45
2022/04/14 15:49:53;;;;;;;9.90;4.70;;;;;;;20.99;29.49;98624.09;433185;1270;108702;-40
2022/04/14 16:00:00;;;;;;;10.30;4.80;;;;;;;20.84;29.85;98620.88;433194;1270;98034;-45
2022/04/14 16:20:33;;;;;;;16.60;6.10;;;;;;;20.47;29.97;98626.58;433140;1269;98850;-41
2022/04/14 16:30:40;;;;;;;7.90;4.70;;;;;;;20.20;30.42;98624.79;433256;1270;112446;-46
2022/04/14 16:40:48;;;;;;;13.60;4.90;;;;;;;19.98;30.75;98620.60;433201;1268;108786;-41
2022/04/14 16:50:56;;;;;;;6.20;4.90;;;;;;;19.69;31.03;98628.10;433077;1270;99344;-45
2022/04/14 17:11:10;;;;;;;8.70;5.70;;;;;;;18.93;32.01;98638.19;433133;1269;99286;-46
2022/04/14 17:21:16;;;;;;;10.90;6.30;;;;;;;18.50;32.33;98647.82;433045;1270;112497;-44
2022/04/14 17:31:23;;;;;;;19.50;7.80;;;;;;;18.05;32.81;98650.40;433087;1270;108862;-40
2022/04/14 17:41:30;;;;;;;20.40;9.20;;;;;;;17.59;33.42;98652.34;433169;1270;99276;-43
2022/04/14 17:51:39;;;;;;;21.80;8.30;;;;;;;17.13;33.81;98667.14;433294;1269;109002;-48
2022/04/14 18:01:46;;;;;;;16.50;8.10;;;;;;;16.74;34.44;98674.73;432601;1270;99248;-45
2022/04/14 18:11:53;;;;;;;30.30;12.70;;;;;;;16.37;35.12;98683.45;433199;1269;112396;-43
2022/04/14 18:32:09;;;;;;;37.10;23.00;;;;;;;15.57;36.45;98692.83;433141;1269;98449;-45
2022/04/14 18:42:17;;;;;;;58.60;31.70;;;;;;;15.04;37.37;98697.55;433243;1270;107752;-42
2022/04/14 18:52:24;;;;;;;73.30;41.30;;;;;;;14.51;38.08;98697.40;433003;1269;99266;-41
2022/04/14 19:02:31;;;;;;;103.40;55.40;;;;;;;14.13;39.02;98690.92;433164;1269;111140;-44
2022/04/14 19:12:37;;;;;;;138.30;78.60;;;;;;;13.93;39.59;98689.23;433015;1270;108221;-44
2022/04/14 19:22:44;;;;;;;157.60;87.70;;;;;;;13.68;40.11;98693.88;433129;1270;98477;-42
2022/04/14 19:32:50;;;;;;;143.50;82.10;;;;;;;13.46;40.72;98692.55;432948;1269;108932;-43
2022/04/14 19:42:57;;;;;;;135.00;73.00;;;;;;;13.30;41.24;98692.94;433069;1269;98864;-46
2022/04/14 19:53:06;;;;;;;113.10;57.80;;;;;;;13.29;41.80;98687.73;433060;1270;113113;-42
2022/04/14 20:03:13;;;;;;;60.40;35.70;;;;;;;13.41;42.00;98686.86;433033;1269;107217;-43
2022/04/14 20:13:20;;;;;;;56.20;31.20;;;;;;;13.61;42.22;98687.73;432964;1270;98027;-45
2022/04/14 20:33:32;;;;;;;30.00;16.30;;;;;;;13.98;42.37;98681.84;433050;1269;98478;-45
2022/04/14 20:43:40;;;;;;;25.60;16.50;;;;;;;14.09;42.35;98681.67;433057;1270;112810;-44
2022/04/14 20:53:48;;;;;;;31.60;16.50;;;;;;;14.05;42.67;98699.45;433066;1270;108576;-42
2022/04/14 21:03:55;;;;;;;28.70;16.50;;;;;;;13.87;43.00;98701.02;433029;1270;99276;-45
2022/04/14 21:14:03;;;;;;;34.20;18.00;;;;;;;13.70;43.29;98698.42;432728;1270;434642;-46
2022/04/14 21:34:16;;;;;;;34.80;17.70;;;;;;;13.80;43.85;98677.80;433033;1270;112501;-46
2022/04/14 21:44:23;;;;;;;31.90;17.30;;;;;;;13.88;44.04;98674.42;433027;1270;108878;-44
2022/04/14 21:54:31;;;;;;;33.10;19.10;;;;;;;13.85;44.26;98672.98;433078;1270;99349;-44
2022/04/14 22:04:37;;;;;;;29.80;17.20;;;;;;;13.78;44.42;98679.17;433031;1269;109150;-43
2022/04/14 22:14:44;;;;;;;36.00;18.70;;;;;;;13.68;44.79;98676.29;433078;1270;98853;-41
2022/04/14 22:24:52;;;;;;;32.70;18.00;;;;;;;13.54;45.16;98667.52;433102;1271;112290;-44
2022/04/14 22:45:06;;;;;;;35.70;19.00;;;;;;;13.17;45.90;98677.34;433082;1269;98025;-43
2022/04/14 22:55:14;;;;;;;43.10;22.60;;;;;;;12.93;46.53;98681.86;433086;1269;108818;-44
2022/04/14 23:05:21;;;;;;;53.30;28.50;;;;;;;12.99;48.08;98680.30;433046;1269;99069;-42
2022/04/14 23:15:35;;;;;;;56.10;28.30;;;;;;;13.01;49.44;98683.62;433050;1271;112427;-46
2022/04/14 23:25:43;;;;;;;57.20;29.40;;;;;;;12.92;50.15;98684.83;433066;1270;109147;-45
2022/04/14 23:35:50;;;;;;;63.30;31.20;;;;;;;12.77;50.44;98687.41;433203;1271;99238;-44
2022/04/14 23:45:57;;;;;;;54.50;30.20;;;;;;;12.61;51.43;98687.96;433213;1271;109000;-45
2022/04/14 23:56:03;;;;;;;63.30;31.10;;;;;;;12.50;52.16;98690.42;433218;1269;98052;-44
